MST,Max TemperatureF,Mean TemperatureF,Min TemperatureF,Max Dew PointF,MeanDew PointF,Min DewpointF,Max Humidity, Mean Humidity, Min Humidity, Max Sea Level PressureIn, Mean Sea Level PressureIn, Min Sea Level PressureIn, Max VisibilityMiles, Mean VisibilityMiles, Min VisibilityMiles, Max Wind SpeedMPH, Mean Wind SpeedMPH, Max Gust SpeedMPH,PrecipitationIn, CloudCover, Events, WindDirDegrees
2013-8-1,82,68,55,55,51,48,83,56,30,30.01,29.97,29.89,10,10,10,21,5,25,0.04,3,Rain,206
2013-8-2,84,68,53,55,48,34,93,52,20,29.98,29.95,29.91,10,10,10,22,6,25,0.00,1,,203
2013-8-3,84,68,51,50,45,36,83,49,18,30.03,29.99,29.95,10,10,10,15,5,28,0.00,1,,169
2013-8-4,82,66,50,51,46,41,83,56,24,30.33,30.07,29.98,10,8,2,17,3,23,0.00,2,Rain,170
2013-8-5,84,64,45,46,37,30,87,42,17,30.30,30.01,29.90,10,8,2,13,3,20,0.00,3,,241
2013-8-6,73,65,57,52,48,40,81,59,38,30.06,30.00,29.89,10,10,10,10,2,,0.01,6,Rain,173
2013-8-7,77,64,50,49,44,40,72,50,26,30.06,30.01,29.94,10,10,8,10,5,16,0.00,4,,37
2013-8-8,82,62,42,41,30,21,82,38,10,30.01,29.96,29.90,10,9,4,13,3,23,0.00,1,,218
2013-8-9,82,60,39,35,27,18,70,33,10,30.23,29.98,29.93,10,10,3,16,4,30,0.00,1,,191
2013-8-10,82,63,44,41,29,25,63,31,13,30.07,30.02,29.98,10,8,3,18,4,25,0.00,2,,192
2013-8-11,79,67,55,51,44,37,69,45,22,30.30,30.03,29.96,10,10,10,13,7,18,0.02,3,Rain-Thunderstorm,83
2013-8-12,84,65,46,46,36,24,83,38,12,30.05,29.99,29.92,10,10,10,12,4,23,0.00,2,,202
2013-8-13,84,62,41,36,30,24,73,34,11,30.07,30.03,29.96,10,10,10,13,4,23,0.00,1,,192
2013-8-14,87,64,41,38,33,26,60,34,15,30.07,30.02,29.93,10,10,10,14,3,23,0.00,1,,220
2013-8-15,82,64,45,47,41,34,68,45,22,30.11,30.06,30.00,10,10,10,16,3,29,0.01,3,,235
2013-8-16,89,68,48,48,42,35,77,42,16,30.12,30.04,29.99,10,10,10,16,3,23,0.00,0,,230
2013-8-17,87,68,50,57,49,40,90,63,19,30.37,30.11,29.97,10,7,0,15,2,24,0.83,3,Rain-Thunderstorm,133
2013-8-18,80,65,50,53,49,41,89,61,28,30.30,30.06,30.00,10,10,10,10,3,,0.00,1,Rain-Thunderstorm,103
2013-8-19,82,66,50,56,49,43,89,61,25,30.30,30.09,29.98,10,10,8,12,3,25,0.01,2,Rain-Thunderstorm,93
2013-8-20,86,67,48,52,47,41,93,54,21,30.06,29.98,29.92,10,10,10,9,3,18,0.00,1,,285
2013-8-21,80,66,52,57,51,45,90,71,29,30.36,30.09,29.95,10,8,0,21,3,32,1.61,3,Rain-Thunderstorm,54
2013-8-22,77,64,51,56,52,47,93,67,36,30.31,30.06,29.94,10,10,10,8,2,,0.00,3,Rain-Thunderstorm,321
2013-8-23,75,64,52,54,51,46,93,68,36,30.02,29.96,29.88,10,10,6,12,4,17,0.05,2,Rain,233
2013-8-24,70,60,50,55,51,46,94,77,47,30.30,30.03,29.94,10,10,2,15,3,20,0.07,3,Rain,150
2013-8-25,64,58,53,56,54,50,90,83,72,30.12,30.09,30.03,10,10,6,8,2,,0.09,6,Rain,128
2013-8-26,72,64,57,61,57,54,100,86,61,30.33,30.15,30.01,10,8,1,12,5,22,1.02,7,Rain-Thunderstorm,92
2013-8-27,66,60,55,58,55,52,100,85,66,30.32,30.10,30.00,10,8,2,13,5,23,0.53,6,Rain-Thunderstorm,75
2013-8-28,79,66,52,58,53,50,93,70,39,30.08,30.02,29.98,10,10,5,14,2,,0.16,2,Rain-Thunderstorm,62
2013-8-29,81,66,50,59,54,48,93,69,36,30.13,30.08,30.04,10,10,10,12,2,18,0.00,2,Rain,108
2013-8-30,73,66,59,62,58,57,94,82,55,30.38,30.17,30.00,10,9,0,9,2,,0.06,6,Fog-Rain-Thunderstorm,209
2013-8-31,72,64,55,61,59,55,100,89,64,30.33,30.16,29.97,10,8,0,9,1,,0.62,7,Fog-Rain,246